Time;durP1;ratioP1;P1;durP2;ratioP2;P2;SDS_P1;SDS_P2;PMS_P1;PMS_P2;Temp;Humidity;BMP_temperature;BMP_pressure;BME280_temperature;BME280_humidity;BME280_pressure;Samples;Min_cycle;Max_cycle;Signal;HPM_P1;HPM_P2
2024/04/20 00:00:19;;;;;;;10.63;3.17;;;7.80;74.10;;;;;;5489191;26;20225;-86
2024/04/20 00:02:46;;;;;;;12.00;3.20;;;7.80;76.00;;;;;;5490348;26;20216;-85
2024/04/20 00:05:12;;;;;;;16.23;3.70;;;7.70;80.30;;;;;;5488582;26;20251;-86
2024/04/20 00:07:38;;;;;;;13.27;3.30;;;7.90;77.20;;;;;;5488488;26;20228;-90
2024/04/20 00:10:04;;;;;;;10.83;2.80;;;7.90;73.20;;;;;;5487396;26;20224;-87
2024/04/20 00:12:30;;;;;;;12.00;3.30;;;7.90;70.80;;;;;;5489202;26;20264;-85
2024/04/20 00:14:58;;;;;;;14.07;3.17;;;7.80;70.90;;;;;;5488939;26;20224;-89
2024/04/20 00:17:23;;;;;;;14.50;3.33;;;7.60;72.40;;;;;;5489484;26;20224;-86
2024/04/20 00:19:49;;;;;;;10.73;2.87;;;7.70;72.20;;;;;;5488455;26;20238;-88
2024/04/20 00:22:15;;;;;;;10.70;2.87;;;7.70;71.40;;;;;;5491308;26;20616;-85
2024/04/20 00:24:41;;;;;;;12.03;3.30;;;7.80;72.20;;;;;;5491132;26;20262;-85
2024/04/20 00:27:07;;;;;;;8.33;3.23;;;7.70;72.90;;;;;;5491774;26;20212;-87
2024/04/20 00:29:33;;;;;;;12.83;3.33;;;7.70;71.60;;;;;;5488814;26;20244;-85
2024/04/20 00:31:59;;;;;;;8.33;2.80;;;7.70;70.40;;;;;;5488798;26;20247;-87
2024/04/20 00:34:26;;;;;;;10.80;2.53;;;7.60;74.60;;;;;;5491523;26;20251;-86
2024/04/20 00:36:52;;;;;;;14.80;2.33;;;7.50;73.50;;;;;;5487829;26;20220;-85
2024/04/20 00:39:18;;;;;;;9.27;2.30;;;7.50;77.30;;;;;;5493404;26;20262;-85
2024/04/20 00:41:52;;;;;;;7.43;2.23;;;7.50;74.10;;;;;;5494378;26;20258;-88
2024/04/20 00:44:19;;;;;;;11.50;3.20;;;7.50;79.20;;;;;;5494075;26;20212;-87
2024/04/20 00:46:47;;;;;;;12.07;3.00;;;7.40;80.00;;;;;;5493820;26;20336;-86
2024/04/20 00:49:14;;;;;;;9.53;2.50;;;7.40;80.40;;;;;;5493656;26;20264;-86
2024/04/20 00:51:41;;;;;;;11.20;2.90;;;7.30;82.70;;;;;;5493519;26;20220;-87
2024/04/20 00:54:08;;;;;;;10.27;2.93;;;7.40;82.50;;;;;;5490354;26;20217;-85
2024/04/20 00:56:35;;;;;;;12.47;3.00;;;7.30;79.00;;;;;;5492716;26;20224;-86
2024/04/20 00:59:01;;;;;;;9.87;2.80;;;7.40;77.40;;;;;;5493725;26;20224;-85
2024/04/20 01:01:27;;;;;;;8.33;2.50;;;7.30;75.20;;;;;;5493881;26;20259;-86
2024/04/20 01:03:54;;;;;;;13.47;2.43;;;7.40;78.30;;;;;;5490385;26;20220;-87
2024/04/20 01:06:22;;;;;;;8.63;2.37;;;7.40;74.80;;;;;;5493828;26;20280;-86
2024/04/20 01:08:48;;;;;;;11.83;2.73;;;7.40;67.50;;;;;;5493285;26;20213;-86
2024/04/20 01:11:17;;;;;;;7.93;2.43;;;7.40;68.20;;;;;;5491820;26;20313;-88
2024/04/20 01:13:51;;;;;;;8.23;2.77;;;7.40;66.50;;;;;;5490428;26;20228;-87
2024/04/20 01:16:17;;;;;;;10.30;2.00;;;7.30;69.70;;;;;;5489446;26;20219;-87
2024/04/20 01:18:42;;;;;;;8.67;2.60;;;7.30;69.70;;;;;;5493253;26;20212;-87
2024/04/20 01:21:11;;;;;;;7.63;2.53;;;7.30;68.40;;;;;;5492779;26;20540;-89
2024/04/20 01:23:38;;;;;;;12.77;2.50;;;7.30;67.60;;;;;;5492108;26;20251;-86
2024/04/20 01:26:04;;;;;;;9.10;2.40;;;7.30;73.00;;;;;;5494331;26;20331;-86
2024/04/20 01:28:30;;;;;;;11.10;2.90;;;7.20;73.50;;;;;;5491392;26;20629;-86
2024/04/20 01:30:56;;;;;;;7.57;2.23;;;7.30;72.90;;;;;;5491822;26;20250;-87
2024/04/20 01:33:22;;;;;;;8.50;2.53;;;7.20;73.70;;;;;;5491364;26;20217;-87
2024/04/20 01:35:51;;;;;;;10.67;2.77;;;7.20;76.00;;;;;;5491427;26;20339;-86
2024/04/20 01:38:17;;;;;;;9.93;2.57;;;7.40;73.70;;;;;;5490787;26;20584;-86
2024/04/20 01:40:42;;;;;;;8.70;2.33;;;7.30;72.10;;;;;;5494984;26;20297;-86
2024/04/20 01:43:09;;;;;;;9.07;2.40;;;7.30;73.40;;;;;;5493455;26;20250;-84
2024/04/20 01:45:35;;;;;;;8.27;2.50;;;7.30;76.20;;;;;;5499471;26;20266;-87
2024/04/20 01:48:00;;;;;;;8.40;2.47;;;7.30;75.10;;;;;;5496133;26;20681;-86
2024/04/20 01:50:26;;;;;;;9.93;2.70;;;7.30;72.90;;;;;;5491373;26;20252;-86
2024/04/20 01:52:52;;;;;;;11.13;2.30;;;7.40;69.10;;;;;;5492293;26;20216;-87
2024/04/20 01:55:17;;;;;;;9.93;2.90;;;7.40;65.80;;;;;;5493022;26;20216;-87
2024/04/20 01:57:44;;;;;;;9.27;2.13;;;7.40;67.00;;;;;;5491691;26;20696;-86
2024/04/20 02:00:10;;;;;;;13.27;2.47;;;7.40;66.00;;;;;;5489805;26;20224;-86
2024/04/20 02:02:37;;;;;;;10.83;2.70;;;7.30;72.30;;;;;;5489651;26;20280;-87
2024/04/20 02:05:04;;;;;;;12.77;2.70;;;7.30;74.00;;;;;;5492530;26;20212;-86
2024/04/20 02:07:29;;;;;;;10.17;2.37;;;7.30;75.80;;;;;;5489324;26;20256;-85
2024/04/20 02:09:55;;;;;;;10.20;2.43;;;7.40;74.90;;;;;;5491345;26;20216;-84
2024/04/20 02:12:21;;;;;;;6.77;2.40;;;7.40;73.70;;;;;;5490639;26;20232;-86
2024/04/20 02:14:46;;;;;;;9.63;2.07;;;7.40;72.90;;;;;;5489822;26;20589;-86
2024/04/20 02:17:12;;;;;;;9.33;2.37;;;7.40;71.70;;;;;;5490286;26;20228;-87
2024/04/20 02:19:38;;;;;;;9.03;2.43;;;7.40;71.70;;;;;;5490088;26;20614;-86
2024/04/20 02:22:03;;;;;;;8.70;2.40;;;7.50;67.80;;;;;;5489729;26;20247;-88
2024/04/20 02:24:29;;;;;;;12.67;2.57;;;7.60;69.50;;;;;;5493265;26;20580;-86
2024/04/20 02:26:55;;;;;;;11.07;2.77;;;7.70;62.10;;;;;;5490663;26;20223;-87
2024/04/20 02:29:20;;;;;;;9.83;2.50;;;7.70;61.10;;;;;;5491348;26;20322;-86
2024/04/20 02:31:46;;;;;;;8.57;2.40;;;7.70;62.50;;;;;;5488584;26;20213;-85
2024/04/20 02:34:12;;;;;;;14.50;3.20;;;7.50;67.10;;;;;;5491665;26;20549;-85
2024/04/20 02:36:37;;;;;;;11.37;2.10;;;7.40;72.30;;;;;;5489897;26;20227;-87
2024/04/20 02:39:03;;;;;;;10.47;2.77;;;7.30;74.30;;;;;;5492941;26;20263;-86
2024/04/20 02:41:29;;;;;;;12.30;3.13;;;7.30;77.40;;;;;;5489638;26;20224;-88
2024/04/20 02:43:56;;;;;;;9.03;2.40;;;7.30;77.10;;;;;;5489364;26;20300;-85
2024/04/20 02:46:21;;;;;;;10.30;2.30;;;7.20;77.50;;;;;;5490214;26;20250;-88
2024/04/20 02:48:47;;;;;;;11.13;2.60;;;7.10;75.60;;;;;;5489383;26;20653;-87
2024/04/20 02:51:13;;;;;;;7.93;2.37;;;7.10;78.80;;;;;;5487791;26;20223;-87
2024/04/20 02:53:39;;;;;;;8.43;1.80;;;7.20;72.50;;;;;;5492779;26;20216;-85
2024/04/20 02:56:05;;;;;;;6.13;2.30;;;7.20;69.80;;;;;;5490897;26;20316;-89
2024/04/20 02:58:31;;;;;;;9.67;2.20;;;7.20;70.40;;;;;;5493308;26;20217;-85
2024/04/20 03:01:02;;;;;;;9.67;2.50;;;7.30;68.60;;;;;;5490475;26;20287;-86
2024/04/20 03:03:29;;;;;;;7.60;1.80;;;7.10;69.00;;;;;;5490920;26;20675;-86
2024/04/20 03:05:55;;;;;;;6.93;1.87;;;7.20;67.30;;;;;;5491425;26;20273;-87
2024/04/20 03:08:21;;;;;;;6.07;2.00;;;7.10;65.90;;;;;;5491496;26;20315;-87
2024/04/20 03:10:47;;;;;;;8.60;2.60;;;7.10;69.30;;;;;;5490755;26;20232;-85
2024/04/20 03:13:13;;;;;;;8.07;2.00;;;7.20;68.20;;;;;;5492071;26;20232;-86
2024/04/20 03:15:43;;;;;;;6.13;1.97;;;7.20;61.90;;;;;;5491425;26;20259;-86
2024/04/20 03:18:10;;;;;;;10.73;2.43;;;7.20;60.20;;;;;;5489186;26;20263;-85
2024/04/20 03:20:36;;;;;;;8.87;1.90;;;7.30;59.60;;;;;;5488090;26;20228;-87
2024/04/20 03:23:02;;;;;;;7.50;1.90;;;7.20;58.30;;;;;;5488541;26;20685;-85
2024/04/20 03:25:28;;;;;;;7.43;1.73;;;7.20;51.70;;;;;;5488671;26;20220;-85
2024/04/20 03:27:56;;;;;;;8.97;1.70;;;7.20;53.90;;;;;;5488148;26;20312;-85
2024/04/20 03:30:22;;;;;;;10.27;1.70;;;7.10;54.20;;;;;;5491902;26;20705;-85
2024/04/20 03:32:48;;;;;;;6.07;1.40;;;7.20;53.90;;;;;;5490091;26;20224;-87
2024/04/20 03:35:14;;;;;;;7.50;1.80;;;7.10;52.30;;;;;;5491840;26;20209;-87
2024/04/20 03:37:40;;;;;;;5.90;1.60;;;7.10;55.60;;;;;;5491821;26;20598;-85
2024/04/20 03:40:07;;;;;;;4.83;1.77;;;7.10;55.60;;;;;;5488955;26;20624;-86
2024/04/20 03:42:33;;;;;;;5.93;1.40;;;7.20;52.00;;;;;;5490293;26;20251;-86
2024/04/20 03:44:58;;;;;;;6.47;1.83;;;7.20;50.30;;;;;;5490140;26;20559;-84
2024/04/20 03:47:24;;;;;;;6.97;2.00;;;7.30;50.10;;;;;;5490557;26;20213;-84
2024/04/20 03:49:49;;;;;;;7.57;1.43;;;7.30;43.60;;;;;;5488495;26;20752;-87
2024/04/20 03:52:16;;;;;;;5.57;1.27;;;7.20;41.30;;;;;;5491081;26;20258;-85
2024/04/20 03:54:42;;;;;;;7.97;1.50;;;7.20;39.10;;;;;;5488754;26;20236;-85
2024/04/20 03:57:09;;;;;;;8.60;1.43;;;7.30;36.50;;;;;;5490029;26;20543;-86
2024/04/20 03:59:34;;;;;;;7.70;1.50;;;7.20;36.40;;;;;;5489780;26;20973;-85
2024/04/20 04:02:00;;;;;;;7.30;1.50;;;7.30;37.60;;;;;;5488702;26;20212;-85
2024/04/20 04:04:26;;;;;;;5.83;1.60;;;7.30;42.80;;;;;;5488888;26;20232;-85
2024/04/20 04:06:51;;;;;;;13.70;2.20;;;7.30;49.10;;;;;;5490836;26;20259;-86
2024/04/20 04:09:17;;;;;;;6.93;1.97;;;7.20;56.80;;;;;;5488591;26;20628;-86
2024/04/20 04:11:45;;;;;;;7.57;1.80;;;7.20;61.40;;;;;;5488462;26;20232;-85
2024/04/20 04:14:10;;;;;;;10.13;1.97;;;7.20;67.10;;;;;;5492140;26;20308;-87
2024/04/20 04:16:36;;;;;;;10.13;1.93;;;7.20;71.90;;;;;;5494596;26;20220;-89
2024/04/20 04:19:02;;;;;;;12.83;2.57;;;7.00;76.70;;;;;;5494434;26;20323;-88
2024/04/20 04:21:35;;;;;;;5.90;1.70;;;7.10;78.60;;;;;;5493375;26;20224;-86
2024/04/20 04:24:01;;;;;;;9.83;2.23;;;7.10;77.80;;;;;;5497361;26;20212;-85
2024/04/20 04:26:27;;;;;;;6.97;2.20;;;7.10;72.30;;;;;;5495849;26;20282;-87
2024/04/20 04:28:52;;;;;;;8.43;2.37;;;7.10;74.50;;;;;;5495624;26;20324;-87
2024/04/20 04:31:22;;;;;;;6.53;2.53;;;7.10;75.80;;;;;;5496061;26;20228;-84
2024/04/20 04:33:50;;;;;;;9.47;1.80;;;7.10;69.70;;;;;;5494825;26;20320;-86
2024/04/20 04:36:15;;;;;;;10.73;2.00;;;7.10;71.50;;;;;;5494255;26;20303;-86
2024/04/20 04:38:41;;;;;;;8.33;1.67;;;7.10;72.50;;;;;;5493817;26;20263;-85
2024/04/20 04:41:07;;;;;;;7.73;1.87;;;7.00;76.80;;;;;;5491884;26;20232;-87
2024/04/20 04:43:32;;;;;;;10.57;2.60;;;7.20;74.60;;;;;;5491794;26;20251;-87
2024/04/20 04:45:58;;;;;;;8.27;1.97;;;7.30;72.10;;;;;;5491382;26;20220;-85
2024/04/20 04:48:26;;;;;;;5.80;1.50;;;7.30;70.90;;;;;;5490924;26;20258;-85
2024/04/20 04:50:52;;;;;;;7.40;1.77;;;7.30;69.30;;;;;;5493665;26;20324;-86
2024/04/20 04:53:18;;;;;;;8.27;2.20;;;7.30;68.70;;;;;;5493108;26;20216;-88
2024/04/20 04:55:45;;;;;;;9.20;2.07;;;7.30;67.80;;;;;;5490653;26;20708;-86
2024/04/20 04:58:11;;;;;;;10.57;2.17;;;7.30;66.90;;;;;;5493445;26;20212;-86
2024/04/20 05:00:37;;;;;;;12.73;2.57;;;7.40;66.30;;;;;;5491327;26;20224;-86
2024/04/20 05:03:04;;;;;;;6.20;2.03;;;7.50;67.00;;;;;;5490933;26;20297;-87
2024/04/20 05:05:31;;;;;;;5.80;1.90;;;7.50;65.30;;;;;;5492343;26;20281;-86
2024/04/20 05:07:58;;;;;;;11.33;2.17;;;7.40;64.50;;;;;;5491925;26;20673;-84
2024/04/20 05:10:23;;;;;;;12.07;2.50;;;7.30;69.10;;;;;;5493481;26;20317;-85
2024/04/20 05:12:49;;;;;;;8.57;2.07;;;7.40;69.00;;;;;;5490785;26;20291;-87
2024/04/20 05:15:15;;;;;;;5.20;1.77;;;7.40;67.90;;;;;;5490503;26;20224;-86
2024/04/20 05:17:41;;;;;;;5.70;1.80;;;7.20;72.80;;;;;;5491762;26;20289;-87
2024/04/20 05:20:07;;;;;;;6.83;1.70;;;7.10;82.60;;;;;;5492760;26;20656;-86
2024/04/20 05:22:33;;;;;;;8.20;2.20;;;7.00;88.50;;;;;;5490650;26;20221;-85
2024/04/20 05:25:00;;;;;;;6.90;2.20;;;6.90;91.90;;;;;;5491848;26;20213;-86
2024/04/20 05:27:25;;;;;;;6.07;1.70;;;6.90;94.00;;;;;;5490698;26;20304;-86
2024/04/20 05:29:51;;;;;;;9.33;2.37;;;6.90;96.10;;;;;;5491557;26;20224;-87
2024/04/20 05:32:18;;;;;;;8.10;2.40;;;6.90;97.20;;;;;;5490272;26;20640;-86
2024/04/20 05:34:43;;;;;;;8.23;2.10;;;6.90;99.90;;;;;;5492537;26;20235;-85
2024/04/20 05:37:11;;;;;;;7.23;2.63;;;7.00;97.80;;;;;;5490863;26;20586;-86
2024/04/20 05:39:37;;;;;;;10.10;1.90;;;7.10;96.50;;;;;;5490402;26;20224;-86
2024/04/20 05:42:03;;;;;;;8.27;1.83;;;7.20;94.40;;;;;;5493105;26;20826;-86
2024/04/20 05:44:29;;;;;;;7.07;2.00;;;7.10;94.10;;;;;;5491209;26;20281;-86
2024/04/20 05:46:55;;;;;;;8.77;1.70;;;7.40;93.90;;;;;;5492325;26;20689;-87
2024/04/20 05:49:21;;;;;;;5.40;1.83;;;7.50;92.90;;;;;;5490548;26;20452;-86
2024/04/20 05:51:46;;;;;;;5.07;1.77;;;7.50;90.80;;;;;;5492194;26;20216;-85
2024/04/20 05:54:12;;;;;;;8.47;1.60;;;7.50;91.40;;;;;;5489428;26;20769;-86
2024/04/20 05:56:39;;;;;;;7.13;2.03;;;7.40;90.80;;;;;;5492473;26;20251;-86
2024/04/20 05:59:05;;;;;;;7.27;1.37;;;7.60;87.10;;;;;;5489922;26;20258;-86
2024/04/20 06:01:31;;;;;;;8.43;2.30;;;7.60;83.10;;;;;;5490393;26;20255;-86
2024/04/20 06:03:59;;;;;;;9.30;2.50;;;7.60;82.90;;;;;;5492138;26;20217;-86
2024/04/20 06:06:25;;;;;;;8.07;2.07;;;7.50;80.60;;;;;;5488879;26;20224;-87
2024/04/20 06:08:52;;;;;;;7.33;2.33;;;7.50;83.50;;;;;;5491305;26;20263;-87
2024/04/20 06:11:17;;;;;;;5.73;1.97;;;7.50;84.30;;;;;;5489624;26;20220;-85
2024/04/20 06:13:43;;;;;;;8.67;2.13;;;7.60;82.20;;;;;;5491809;26;20557;-84
2024/04/20 06:16:09;;;;;;;6.73;1.77;;;7.60;81.90;;;;;;5488670;26;20320;-87
2024/04/20 06:18:35;;;;;;;7.40;2.10;;;7.50;84.60;;;;;;5489176;26;20251;-87
2024/04/20 06:21:00;;;;;;;7.83;2.57;;;7.60;87.20;;;;;;5489102;26;20220;-86
2024/04/20 06:23:28;;;;;;;9.30;2.20;;;7.40;85.90;;;;;;5489150;26;20232;-85
2024/04/20 06:25:55;;;;;;;7.73;2.07;;;7.40;88.90;;;;;;5491310;26;20216;-84
2024/04/20 06:28:21;;;;;;;8.97;2.17;;;7.50;90.00;;;;;;5490277;26;20259;-87
2024/04/20 06:30:48;;;;;;;9.20;1.90;;;7.50;89.50;;;;;;5488768;26;20243;-89
2024/04/20 06:33:14;;;;;;;7.43;1.90;;;7.70;87.10;;;;;;5489698;26;20228;-86
2024/04/20 06:35:40;;;;;;;11.23;2.47;;;7.80;84.00;;;;;;5487924;26;20220;-87
2024/04/20 06:38:05;;;;;;;8.13;2.00;;;8.00;82.60;;;;;;5489791;26;20265;-86
2024/04/20 06:40:31;;;;;;;9.87;2.50;;;8.10;81.90;;;;;;5491143;26;20220;-89
2024/04/20 06:42:57;;;;;;;7.20;1.70;;;8.20;78.20;;;;;;5489551;26;20220;-87
2024/04/20 06:45:23;;;;;;;5.83;1.83;;;8.30;76.70;;;;;;5487950;26;20300;-85
2024/04/20 06:47:48;;;;;;;6.37;2.07;;;8.40;72.30;;;;;;5488671;26;20253;-85
2024/04/20 06:50:17;;;;;;;9.80;2.80;;;8.10;76.90;;;;;;5487798;26;20247;-87
2024/04/20 06:52:44;;;;;;;6.60;2.10;;;7.90;85.20;;;;;;5488724;26;20688;-86
2024/04/20 06:55:10;;;;;;;5.97;1.70;;;7.90;91.40;;;;;;5488605;26;20224;-87
2024/04/20 06:57:35;;;;;;;8.23;2.10;;;7.90;92.90;;;;;;5491827;26;20259;-87
2024/04/20 07:00:02;;;;;;;6.07;2.10;;;7.70;93.30;;;;;;5493120;26;20270;-86
2024/04/20 07:02:28;;;;;;;6.70;1.73;;;7.60;95.80;;;;;;5489172;26;20220;-86
2024/04/20 07:04:54;;;;;;;7.10;1.63;;;7.60;97.30;;;;;;5490414;26;20215;-86
2024/04/20 07:07:20;;;;;;;5.37;2.07;;;7.60;96.50;;;;;;5489918;26;20211;-86
2024/04/20 07:09:48;;;;;;;8.83;1.73;;;7.70;98.40;;;;;;5490693;26;20249;-85
2024/04/20 07:12:15;;;;;;;6.87;1.90;;;7.80;95.40;;;;;;5489807;26;20297;-87
2024/04/20 07:14:41;;;;;;;7.30;2.10;;;7.80;94.00;;;;;;5485212;26;20220;-88
2024/04/20 07:17:08;;;;;;;7.37;1.60;;;7.80;92.80;;;;;;5488927;26;20228;-84
2024/04/20 07:19:33;;;;;;;7.73;1.93;;;7.80;94.10;;;;;;5489463;26;20258;-87
2024/04/20 07:22:00;;;;;;;8.43;1.93;;;7.90;93.00;;;;;;5488672;26;20224;-89
2024/04/20 07:24:25;;;;;;;6.33;1.70;;;8.00;92.40;;;;;;5489722;26;20224;-90
2024/04/20 07:26:52;;;;;;;4.37;1.40;;;8.10;92.70;;;;;;5491771;26;20280;-90
2024/04/20 07:29:18;;;;;;;7.10;1.90;;;8.20;86.80;;;;;;5490780;26;20308;-86
2024/04/20 07:31:50;;;;;;;6.57;1.83;;;8.30;85.10;;;;;;5487003;26;20220;-90
2024/04/20 07:34:16;;;;;;;8.87;2.17;;;8.30;85.30;;;;;;5491442;26;20216;-88
2024/04/20 07:36:47;;;;;;;6.10;1.80;;;8.50;84.90;;;;;;5518480;25;20229;-89
2024/04/20 07:39:13;;;;;;;9.13;2.00;;;8.40;82.40;;;;;;5452713;26;20233;-89
2024/04/20 07:41:38;;;;;;;5.80;1.80;;;8.40;82.20;;;;;;5454561;26;20256;-89
2024/04/20 07:44:04;;;;;;;9.17;2.07;;;8.30;80.60;;;;;;5463846;26;20562;-87
2024/04/20 07:46:30;;;;;;;8.27;2.10;;;8.20;83.50;;;;;;5490578;26;20212;-86
2024/04/20 07:48:55;;;;;;;5.30;1.97;;;8.10;87.10;;;;;;5492963;26;20351;-88
2024/04/20 07:51:21;;;;;;;10.17;1.90;;;8.10;88.10;;;;;;5494302;26;20220;-88
2024/04/20 07:53:47;;;;;;;7.70;1.83;;;8.10;89.50;;;;;;5493758;26;20228;-88
2024/04/20 07:56:12;;;;;;;6.53;2.13;;;8.00;90.90;;;;;;5494347;26;20215;-88
2024/04/20 07:58:38;;;;;;;5.73;1.80;;;8.10;92.50;;;;;;5492911;26;20216;-87
2024/04/20 08:01:05;;;;;;;7.37;2.10;;;8.00;92.80;;;;;;5495673;26;20316;-85
2024/04/20 08:03:31;;;;;;;6.73;2.00;;;7.90;97.50;;;;;;5493984;26;20742;-91
2024/04/20 08:05:57;;;;;;;8.73;2.37;;;8.00;98.90;;;;;;5493120;26;20216;-87
2024/04/20 08:08:23;;;;;;;8.60;2.43;;;8.00;99.90;;;;;;5493099;26;20224;-88
2024/04/20 08:10:49;;;;;;;7.90;2.30;;;8.00;99.90;;;;;;5494544;26;20735;-86
2024/04/20 08:13:16;;;;;;;6.87;2.10;;;8.10;99.90;;;;;;5492406;26;20318;-92
2024/04/20 08:15:43;;;;;;;9.10;2.33;;;8.10;99.90;;;;;;5494945;26;20254;-89
2024/04/20 08:18:09;;;;;;;9.77;2.67;;;8.00;99.90;;;;;;5492259;26;20696;-88
2024/04/20 08:20:35;;;;;;;6.50;2.23;;;7.90;99.90;;;;;;5491995;26;20247;-87
2024/04/20 08:23:01;;;;;;;5.33;1.87;;;7.80;99.90;;;;;;5490717;26;20588;-87
2024/04/20 08:25:28;;;;;;;5.43;1.90;;;7.60;99.90;;;;;;5492381;26;20216;-84
2024/04/20 08:27:54;;;;;;;7.77;2.00;;;7.30;99.90;;;;;;5490922;26;20250;-83
2024/04/20 08:30:20;;;;;;;7.03;2.40;;;7.20;99.90;;;;;;5489607;26;20232;-90
2024/04/20 08:32:47;;;;;;;10.30;2.47;;;7.20;99.90;;;;;;5489238;26;20227;-85
2024/04/20 08:35:14;;;;;;;8.97;1.93;;;7.10;99.90;;;;;;5488331;26;20216;-89
2024/04/20 08:37:40;;;;;;;8.70;2.40;;;7.00;99.90;;;;;;5489537;26;20220;-84
2024/04/20 08:40:10;;;;;;;9.83;2.53;;;7.20;99.90;;;;;;5490402;26;20711;-90
2024/04/20 08:42:37;;;;;;;10.20;2.90;;;7.30;99.90;;;;;;5491083;26;20316;-87
2024/04/20 08:45:03;;;;;;;8.60;2.00;;;7.50;99.90;;;;;;5491667;26;20236;-85
2024/04/20 08:47:34;;;;;;;10.27;2.77;;;7.70;99.90;;;;;;5491968;26;20232;-87
2024/04/20 08:50:01;;;;;;;7.80;2.00;;;7.60;99.90;;;;;;5494061;26;20684;-88
2024/04/20 08:52:36;;;;;;;5.40;1.60;;;7.70;97.50;;;;;;5495175;26;20255;-84
2024/04/20 08:55:04;;;;;;;5.00;1.80;;;7.70;64.20;;;;;;5490585;26;20550;-86
2024/04/20 08:57:35;;;;;;;8.63;2.37;;;7.90;57.00;;;;;;5488393;26;20267;-93
2024/04/20 09:00:02;;;;;;;8.50;2.33;;;8.10;57.20;;;;;;5491167;26;20236;-87
2024/04/20 09:02:31;;;;;;;10.10;2.17;;;8.10;58.50;;;;;;5491187;26;20259;-85
2024/04/20 09:04:57;;;;;;;7.00;2.13;;;8.20;65.00;;;;;;5491338;26;20669;-86
2024/04/20 09:07:26;;;;;;;6.63;2.57;;;8.20;66.90;;;;;;5489730;26;20224;-88
2024/04/20 09:09:52;;;;;;;6.73;2.83;;;8.30;75.50;;;;;;5490670;26;20270;-86
2024/04/20 09:12:18;;;;;;;6.93;1.90;;;8.40;82.20;;;;;;5488693;26;20236;-88
2024/04/20 09:14:44;;;;;;;5.60;1.63;;;8.40;77.50;;;;;;5490934;26;20225;-85
2024/04/20 09:17:09;;;;;;;5.63;1.90;;;8.30;80.90;;;;;;5489337;26;20669;-87
2024/04/20 09:19:35;;;;;;;6.10;2.20;;;8.30;83.90;;;;;;5490919;26;20225;-84
2024/04/20 09:22:10;;;;;;;8.83;2.63;;;8.30;83.20;;;;;;5491719;26;20320;-86
2024/04/20 09:24:36;;;;;;;7.10;2.03;;;8.20;91.20;;;;;;5489690;26;20224;-87
2024/04/20 09:27:03;;;;;;;7.07;2.50;;;8.30;90.80;;;;;;5489261;26;20556;-88
2024/04/20 09:29:28;;;;;;;9.53;2.67;;;8.20;87.60;;;;;;5488694;26;20289;-89
2024/04/20 09:31:55;;;;;;;6.53;2.70;;;8.20;92.40;;;;;;5489573;26;20268;-89
2024/04/20 09:34:25;;;;;;;8.80;2.70;;;8.20;90.20;;;;;;5490848;26;20271;-88
2024/04/20 09:36:54;;;;;;;7.40;2.07;;;8.20;90.00;;;;;;5490862;26;20216;-85
2024/04/20 09:39:20;;;;;;;7.67;2.33;;;8.10;72.80;;;;;;5490205;26;20275;-88
2024/04/20 09:41:54;;;;;;;10.50;2.10;;;7.90;63.10;;;;;;5490131;26;20251;-86
2024/04/20 09:44:20;;;;;;;8.03;2.03;;;7.50;75.50;;;;;;5492044;26;20784;-84
2024/04/20 09:46:47;;;;;;;7.07;2.07;;;7.30;82.50;;;;;;5492168;26;20262;-85
2024/04/20 09:49:15;;;;;;;10.87;2.10;;;7.30;94.70;;;;;;5489620;26;20224;-89
2024/04/20 09:51:46;;;;;;;10.73;2.13;;;7.30;69.80;;;;;;5490286;26;20736;-87
2024/04/20 09:54:19;;;;;;;8.40;2.20;;;7.50;52.40;;;;;;5489436;26;20250;-88
2024/04/20 09:56:48;;;;;;;11.30;2.37;;;7.70;58.30;;;;;;5488784;26;20224;-87
2024/04/20 09:59:14;;;;;;;10.43;2.30;;;7.80;61.50;;;;;;5489729;26;20258;-88
2024/04/20 10:01:40;;;;;;;8.37;2.13;;;8.00;53.30;;;;;;5487981;26;20212;-85
2024/04/20 10:04:07;;;;;;;10.07;2.53;;;8.00;52.80;;;;;;5488892;26;20315;-85
2024/04/20 10:06:34;;;;;;;12.37;2.73;;;8.20;56.50;;;;;;5491877;26;20220;-85
2024/04/20 10:09:01;;;;;;;6.87;1.87;;;8.20;44.40;;;;;;5490156;26;20255;-88
2024/04/20 10:11:28;;;;;;;11.00;2.43;;;8.30;44.70;;;;;;5488930;26;20220;-87
2024/04/20 10:13:58;;;;;;;7.73;2.43;;;8.30;42.70;;;;;;5492683;26;20395;-92
2024/04/20 10:16:24;;;;;;;10.80;2.57;;;8.40;49.90;;;;;;5489771;26;20267;-88
2024/04/20 10:18:49;;;;;;;7.33;2.60;;;8.30;50.20;;;;;;5491769;26;20255;-88
2024/04/20 10:21:15;;;;;;;13.17;2.73;;;8.40;60.60;;;;;;5491942;26;20223;-88
2024/04/20 10:23:43;;;;;;;7.80;2.20;;;8.30;65.30;;;;;;5488890;26;20292;-86
2024/04/20 10:26:09;;;;;;;10.97;2.57;;;8.20;70.90;;;;;;5491857;26;20552;-86
2024/04/20 10:28:39;;;;;;;8.53;2.63;;;8.10;82.40;;;;;;5488653;26;20216;-84
2024/04/20 10:31:07;;;;;;;9.00;2.70;;;8.10;90.10;;;;;;5487706;26;20232;-86
2024/04/20 10:33:36;;;;;;;11.40;2.60;;;8.10;93.40;;;;;;5486541;26;20283;-85
2024/04/20 10:36:11;;;;;;;9.47;2.93;;;8.20;94.60;;;;;;5491073;26;20323;-85
2024/04/20 10:38:38;;;;;;;7.73;2.70;;;8.20;91.30;;;;;;5488407;26;20212;-85
2024/04/20 10:41:17;;;;;;;11.43;3.17;;;8.30;92.80;;;;;;5488022;26;20247;-85
2024/04/20 10:43:47;;;;;;;12.07;2.80;;;8.40;84.60;;;;;;5490777;26;20692;-85
2024/04/20 10:46:17;;;;;;;8.33;2.77;;;8.50;67.10;;;;;;5488223;26;20263;-85
2024/04/20 10:48:43;;;;;;;9.10;3.10;;;8.50;60.50;;;;;;5491308;26;20284;-86
2024/04/20 10:51:16;;;;;;;13.17;2.43;;;8.70;60.50;;;;;;5489159;26;20673;-86
2024/04/20 10:53:42;;;;;;;10.80;3.13;;;9.00;52.20;;;;;;5490538;26;20232;-88
2024/04/20 10:56:08;;;;;;;8.63;2.60;;;9.10;39.70;;;;;;5489785;26;20216;-89
2024/04/20 10:58:41;;;;;;;12.87;3.10;;;9.20;40.40;;;;;;5490114;26;20261;-91
2024/04/20 11:01:07;;;;;;;8.40;2.80;;;9.40;41.40;;;;;;5491183;26;20230;-91
2024/04/20 11:03:33;;;;;;;12.13;2.90;;;9.50;41.70;;;;;;5485619;26;20220;-87
2024/04/20 11:06:00;;;;;;;13.33;3.27;;;9.70;38.20;;;;;;5490618;26;20216;-87
2024/04/20 11:08:26;;;;;;;9.50;3.30;;;10.10;36.30;;;;;;5490551;26;20251;-88
2024/04/20 11:10:53;;;;;;;10.57;2.77;;;10.30;29.80;;;;;;5488337;26;20236;-89
2024/04/20 11:13:21;;;;;;;7.87;3.50;;;10.30;31.30;;;;;;5489649;26;20347;-89
2024/04/20 11:15:47;;;;;;;13.73;4.00;;;10.30;29.30;;;;;;5490605;26;20610;-91
2024/04/20 11:18:14;;;;;;;13.47;4.27;;;10.30;31.30;;;;;;5489484;26;20274;-92
2024/04/20 11:20:40;;;;;;;9.67;3.17;;;10.40;26.80;;;;;;5487051;26;20558;-86
2024/04/20 11:23:06;;;;;;;14.17;3.53;;;10.50;24.40;;;;;;5489202;26;20233;-88
2024/04/20 11:25:33;;;;;;;12.97;3.80;;;10.30;29.10;;;;;;5488341;26;20562;-88
2024/04/20 11:28:00;;;;;;;9.67;2.87;;;10.40;29.50;;;;;;5488814;26;20277;-89
2024/04/20 11:30:26;;;;;;;15.80;3.47;;;10.40;28.10;;;;;;5489985;26;20294;-91
2024/04/20 11:32:58;;;;;;;13.43;3.80;;;10.20;21.60;;;;;;5487493;26;20321;-92
2024/04/20 11:35:25;;;;;;;11.80;2.87;;;10.30;28.70;;;;;;5488723;26;20248;-89
2024/04/20 11:37:50;;;;;;;8.50;3.00;;;10.40;24.80;;;;;;5488581;26;20222;-90
2024/04/20 11:40:18;;;;;;;11.00;3.27;;;10.40;24.10;;;;;;5489546;26;20560;-89
2024/04/20 11:42:44;;;;;;;11.43;3.27;;;10.40;23.00;;;;;;5490153;26;20218;-91
2024/04/20 11:45:15;;;;;;;12.93;3.07;;;10.70;18.00;;;;;;5489400;26;20240;-87
2024/04/20 11:47:43;;;;;;;13.20;2.70;;;10.70;12.10;;;;;;5491859;26;20674;-86
2024/04/20 11:50:14;;;;;;;12.40;2.60;;;10.60;1.00;;;;;;5490980;26;20263;-89
2024/04/20 11:55:24;;;;;;;6.50;2.13;;;10.60;1.00;;;;;;5492773;26;20655;-88
2024/04/20 11:57:54;;;;;;;9.70;2.87;;;10.40;1.00;;;;;;5491095;26;20217;-89
2024/04/20 12:00:21;;;;;;;11.07;3.70;;;10.40;1.00;;;;;;5491421;26;20233;-88
2024/04/20 12:02:48;;;;;;;10.13;3.03;;;10.60;1.00;;;;;;5491448;26;20212;-91
2024/04/20 12:05:14;;;;;;;7.50;2.20;;;10.70;1.00;;;;;;5490148;26;20235;-89
2024/04/20 12:07:40;;;;;;;8.43;2.07;;;10.80;1.00;;;;;;5490178;26;20301;-90
2024/04/20 12:10:09;;;;;;;8.53;2.50;;;10.60;1.00;;;;;;5491354;26;20212;-94
2024/04/20 12:12:35;;;;;;;9.27;2.73;;;10.40;1.00;;;;;;5490306;26;20232;-88
2024/04/20 12:15:00;;;;;;;11.57;3.00;;;10.30;1.00;;;;;;5490108;26;20224;-89
2024/04/20 12:17:26;;;;;;;6.93;1.90;;;10.50;1.00;;;;;;5488868;26;20216;-91
2024/04/20 12:19:53;;;;;;;9.47;2.37;;;10.40;1.00;;;;;;5490706;26;20251;-89
2024/04/20 12:22:19;;;;;;;7.50;2.00;;;10.40;1.00;;;;;;5492022;26;20216;-89
2024/04/20 12:24:46;;;;;;;8.87;2.43;;;10.30;1.00;;;;;;5491970;26;20669;-91
2024/04/20 12:27:12;;;;;;;8.30;2.37;;;10.40;1.00;;;;;;5489606;26;20315;-91
2024/04/20 12:29:38;;;;;;;9.23;2.00;;;10.60;1.00;;;;;;5492866;26;20229;-89
2024/04/20 12:32:05;;;;;;;8.17;2.33;;;10.70;1.00;;;;;;5490681;26;20236;-90
2024/04/20 12:34:32;;;;;;;7.17;2.00;;;10.80;1.00;;;;;;5491872;26;20277;-89
2024/04/20 12:36:58;;;;;;;7.27;2.53;;;10.70;1.00;;;;;;5494726;26;20275;-89
2024/04/20 12:39:23;;;;;;;7.67;2.30;;;10.80;1.00;;;;;;5493157;26;20657;-90
2024/04/20 12:41:51;;;;;;;9.63;1.90;;;11.00;1.00;;;;;;5493947;26;20221;-89
2024/04/20 12:44:18;;;;;;;7.23;2.33;;;10.90;1.00;;;;;;5495644;26;20220;-90
2024/04/20 12:46:44;;;;;;;8.27;2.47;;;10.60;1.00;;;;;;5494685;26;20225;-88
2024/04/20 12:49:09;;;;;;;6.00;2.10;;;10.50;1.00;;;;;;5494647;26;20220;-89
2024/04/20 12:51:35;;;;;;;8.10;2.03;;;10.50;1.00;;;;;;5494274;26;20327;-89